DUB weather

Dublin Airport
Dublin, County Dublin, Ireland

Public forecast

Using degrees Celsius for public forecast. Weather courtesy of forecast.io.

METAR (pilot weather report)

Retrieved 2017/06/27 02:30 UTC (29 minutes ago):

EIDW 270230Z 13014KT 9999 -RA FEW004 SCT007 BKN030 12/11 Q1006 NOSIG

TAF (pilot weather forecast)

Forecast is more than 12 hours old.

Retrieved 2017/06/26 00:10 UTC (1 day ago):

TAF EIDW 262300Z 2700/2724 11010KT 8000 FEW006 BKN012 BECMG 2700/2703 14010KT TEMPO 2700/2710 4000 -RA BKN006 TEMPO 2700/2706 RA PROB30 TEMPO 2702/2707 2500 BKN004 SCT018CB BECMG 2708/2711 9999 BKN018 TEMPO 2712/2718 -SHRA FEW018CB PROB40 TEMPO 2721/2724 5000 BR BKN005